THY1WL LTFM-LTAU
Flight info
| Callsign | THY1WL |
|---|---|
| Flight time | 1h 3m |
| Altitude | 31000 |
| Route | ASMAP UT341 BAG UA17 YUCEL UL605 BELSU UA17 KISLA |
| Aircraft | A321/M-SDE3FGHIRWY/LB1 |
Departure
| Time | 2026-05-07 08:13 |
|---|---|
| Airport | İstanbul Airport (LTFM) |
Arrival
| Time | 2026-05-07 09:16 |
|---|---|
| Airport | Kayseri Erkilet International Airport (LTAU) |
| Time | Latitude | Longitude | Altitude | Speed | Heading |
|---|---|---|---|---|---|
| 2026-05-07 07:24 | 41.25815 | 28.75010 | 333 ft | 0 kts | 250° |
| 2026-05-07 08:00 | 41.25820 | 28.75027 | 333 ft | 2 kts | 248° |
| 2026-05-07 08:00 | 41.25825 | 28.75046 | 333 ft | 2 kts | 249° |
| 2026-05-07 08:00 | 41.25831 | 28.75064 | 333 ft | 2 kts | 249° |
| 2026-05-07 08:01 | 41.25836 | 28.75083 | 333 ft | 2 kts | 249° |
| 2026-05-07 08:01 | 41.25842 | 28.75101 | 333 ft | 2 kts | 249° |
| 2026-05-07 08:01 | 41.25847 | 28.75120 | 333 ft | 2 kts | 249° |
| 2026-05-07 08:01 | 41.25851 | 28.75130 | 333 ft | 0 kts | 279° |
| 2026-05-07 08:02 | 41.25847 | 28.75138 | 333 ft | 0 kts | 336° |
| 2026-05-07 08:02 | 41.25835 | 28.75140 | 333 ft | 2 kts | 353° |
| 2026-05-07 08:02 | 41.25821 | 28.75145 | 333 ft | 2 kts | 342° |
| 2026-05-07 08:02 | 41.25814 | 28.75148 | 333 ft | 1 kts | 346° |
| 2026-05-07 08:03 | 41.25811 | 28.75149 | 333 ft | 0 kts | 344° |
| 2026-05-07 08:09 | 41.25833 | 28.75140 | 333 ft | 7 kts | 343° |
| 2026-05-07 08:10 | 41.25885 | 28.75131 | 333 ft | 8 kts | 16° |
| 2026-05-07 08:10 | 41.25921 | 28.75200 | 333 ft | 10 kts | 83° |
| 2026-05-07 08:10 | 41.25922 | 28.75296 | 333 ft | 10 kts | 91° |
| 2026-05-07 08:10 | 41.25949 | 28.75383 | 333 ft | 10 kts | 26° |
| 2026-05-07 08:11 | 41.26026 | 28.75389 | 333 ft | 11 kts | 359° |
| 2026-05-07 08:11 | 41.26109 | 28.75388 | 333 ft | 12 kts | 359° |
| 2026-05-07 08:11 | 41.26195 | 28.75391 | 333 ft | 12 kts | 17° |
| 2026-05-07 08:11 | 41.26232 | 28.75488 | 333 ft | 13 kts | 89° |
| 2026-05-07 08:12 | 41.26234 | 28.75611 | 333 ft | 13 kts | 89° |
| 2026-05-07 08:12 | 41.26298 | 28.75671 | 333 ft | 9 kts | 359° |
| 2026-05-07 08:12 | 41.26305 | 28.75671 | 333 ft | 0 kts | 359° |
| 2026-05-07 08:12 | 41.26482 | 28.75667 | 333 ft | 64 kts | 359° |
| 2026-05-07 08:13 | 41.27214 | 28.75653 | 333 ft | 143 kts | 359° |
| 2026-05-07 08:13 | 41.28426 | 28.75640 | 459 ft | 193 kts | 359° |
| 2026-05-07 08:13 | 41.29802 | 28.75659 | 1051 ft | 207 kts | 359° |
| 2026-05-07 08:13 | 41.31254 | 28.75872 | 1452 ft | 217 kts | 15° |
| 2026-05-07 08:14 | 41.32508 | 28.76985 | 1946 ft | 222 kts | 43° |
| 2026-05-07 08:14 | 41.33662 | 28.78397 | 2450 ft | 226 kts | 40° |
| 2026-05-07 08:14 | 41.34892 | 28.79683 | 2941 ft | 230 kts | 35° |
| 2026-05-07 08:14 | 41.36108 | 28.81071 | 3415 ft | 232 kts | 52° |
| 2026-05-07 08:15 | 41.36552 | 28.83104 | 3893 ft | 235 kts | 92° |
| 2026-05-07 08:15 | 41.36001 | 28.85092 | 4416 ft | 235 kts | 120° |
| 2026-05-07 08:15 | 41.35146 | 28.86940 | 4910 ft | 237 kts | 122° |
| 2026-05-07 08:15 | 41.34274 | 28.88822 | 5401 ft | 239 kts | 120° |
| 2026-05-07 08:16 | 41.33436 | 28.90742 | 5900 ft | 241 kts | 118° |
| 2026-05-07 08:16 | 41.32635 | 28.92676 | 6388 ft | 242 kts | 117° |
| 2026-05-07 08:16 | 41.31849 | 28.94651 | 6865 ft | 244 kts | 116° |
| 2026-05-07 08:16 | 41.31052 | 28.96701 | 7242 ft | 256 kts | 115° |
| 2026-05-07 08:17 | 41.30237 | 28.98829 | 7776 ft | 263 kts | 115° |
| 2026-05-07 08:17 | 41.29394 | 29.01044 | 8289 ft | 271 kts | 115° |
| 2026-05-07 08:17 | 41.28536 | 29.03304 | 8755 ft | 279 kts | 114° |
| 2026-05-07 08:17 | 41.27655 | 29.05623 | 9270 ft | 287 kts | 114° |
| 2026-05-07 08:18 | 41.26752 | 29.08003 | 9777 ft | 295 kts | 114° |
| 2026-05-07 08:18 | 41.25813 | 29.10476 | 10305 ft | 302 kts | 114° |
| 2026-05-07 08:18 | 41.24858 | 29.12992 | 10805 ft | 309 kts | 114° |
| 2026-05-07 08:18 | 41.23891 | 29.15538 | 11311 ft | 315 kts | 114° |
| 2026-05-07 08:19 | 41.22894 | 29.18161 | 11800 ft | 321 kts | 114° |
| 2026-05-07 08:19 | 41.21878 | 29.20830 | 12309 ft | 327 kts | 113° |
| 2026-05-07 08:19 | 41.20855 | 29.23513 | 12802 ft | 332 kts | 113° |
| 2026-05-07 08:19 | 41.19797 | 29.26286 | 13307 ft | 337 kts | 113° |
| 2026-05-07 08:20 | 41.18740 | 29.29055 | 13764 ft | 342 kts | 113° |
| 2026-05-07 08:20 | 41.17667 | 29.31864 | 14271 ft | 346 kts | 113° |
| 2026-05-07 08:20 | 41.16568 | 29.34738 | 14769 ft | 350 kts | 113° |
| 2026-05-07 08:20 | 41.15454 | 29.37647 | 15246 ft | 354 kts | 113° |
| 2026-05-07 08:21 | 41.14347 | 29.40536 | 15747 ft | 358 kts | 113° |
| 2026-05-07 08:21 | 41.13208 | 29.43506 | 16249 ft | 361 kts | 113° |
| 2026-05-07 08:21 | 41.12069 | 29.46473 | 16714 ft | 364 kts | 113° |
| 2026-05-07 08:21 | 41.10923 | 29.49451 | 17225 ft | 367 kts | 113° |
| 2026-05-07 08:22 | 41.09758 | 29.52479 | 17725 ft | 369 kts | 113° |
| 2026-05-07 08:22 | 41.08581 | 29.55533 | 18230 ft | 372 kts | 113° |
| 2026-05-07 08:22 | 41.07415 | 29.58555 | 18729 ft | 373 kts | 113° |
| 2026-05-07 08:22 | 41.06222 | 29.61646 | 19233 ft | 375 kts | 113° |
| 2026-05-07 08:23 | 41.05041 | 29.64703 | 19730 ft | 376 kts | 113° |
| 2026-05-07 08:23 | 41.03864 | 29.67748 | 20220 ft | 376 kts | 113° |
| 2026-05-07 08:23 | 41.02679 | 29.70823 | 20724 ft | 377 kts | 113° |
| 2026-05-07 08:23 | 41.01491 | 29.73898 | 21216 ft | 377 kts | 113° |
| 2026-05-07 08:24 | 41.00288 | 29.77006 | 21663 ft | 378 kts | 113° |
| 2026-05-07 08:24 | 40.99092 | 29.80090 | 22041 ft | 381 kts | 113° |
| 2026-05-07 08:24 | 40.97866 | 29.83247 | 22422 ft | 384 kts | 113° |
| 2026-05-07 08:24 | 40.96649 | 29.86376 | 22805 ft | 387 kts | 113° |
| 2026-05-07 08:25 | 40.95414 | 29.89549 | 23180 ft | 389 kts | 114° |
| 2026-05-07 08:25 | 40.94175 | 29.92726 | 23561 ft | 391 kts | 114° |
| 2026-05-07 08:25 | 40.92929 | 29.95917 | 23949 ft | 393 kts | 114° |
| 2026-05-07 08:25 | 40.91674 | 29.99124 | 24342 ft | 395 kts | 113° |
| 2026-05-07 08:26 | 40.89139 | 30.05578 | 25118 ft | 397 kts | 114° |
| 2026-05-07 08:26 | 40.87868 | 30.08779 | 25500 ft | 397 kts | 114° |
| 2026-05-07 08:26 | 40.86590 | 30.12001 | 25889 ft | 397 kts | 113° |
| 2026-05-07 08:27 | 40.85313 | 30.15230 | 26276 ft | 396 kts | 113° |
| 2026-05-07 08:27 | 40.84049 | 30.18432 | 26665 ft | 396 kts | 113° |
| 2026-05-07 08:27 | 40.82790 | 30.21624 | 27049 ft | 395 kts | 113° |
| 2026-05-07 08:27 | 40.81525 | 30.24828 | 27428 ft | 395 kts | 113° |
| 2026-05-07 08:28 | 40.80254 | 30.28048 | 27656 ft | 398 kts | 113° |
| 2026-05-07 08:28 | 40.78966 | 30.31311 | 27902 ft | 401 kts | 113° |
| 2026-05-07 08:28 | 40.77682 | 30.34555 | 28162 ft | 403 kts | 113° |
| 2026-05-07 08:28 | 40.76371 | 30.37869 | 28428 ft | 405 kts | 113° |
| 2026-05-07 08:29 | 40.75069 | 30.41155 | 28691 ft | 407 kts | 113° |
| 2026-05-07 08:29 | 40.73756 | 30.44459 | 28955 ft | 409 kts | 113° |
| 2026-05-07 08:29 | 40.72443 | 30.47765 | 29221 ft | 411 kts | 113° |
| 2026-05-07 08:29 | 40.71123 | 30.51087 | 29487 ft | 412 kts | 113° |
| 2026-05-07 08:30 | 40.69783 | 30.54454 | 29753 ft | 414 kts | 113° |
| 2026-05-07 08:30 | 40.68451 | 30.57798 | 29961 ft | 416 kts | 113° |
| 2026-05-07 08:30 | 40.67100 | 30.61185 | 30165 ft | 419 kts | 113° |
| 2026-05-07 08:30 | 40.65755 | 30.64550 | 30364 ft | 422 kts | 113° |
| 2026-05-07 08:31 | 40.64375 | 30.68006 | 30578 ft | 425 kts | 114° |
| 2026-05-07 08:31 | 40.62960 | 30.71420 | 30785 ft | 428 kts | 116° |
| 2026-05-07 08:31 | 40.61386 | 30.74768 | 30920 ft | 433 kts | 118° |
| 2026-05-07 08:31 | 40.59763 | 30.78094 | 31061 ft | 437 kts | 119° |
| 2026-05-07 08:32 | 40.56415 | 30.84930 | 31115 ft | 451 kts | 119° |
| 2026-05-07 08:32 | 40.52979 | 30.91940 | 31124 ft | 465 kts | 119° |
| 2026-05-07 08:33 | 40.49441 | 30.99149 | 31128 ft | 479 kts | 119° |
| 2026-05-07 08:33 | 40.45795 | 31.06574 | 31126 ft | 492 kts | 119° |
| 2026-05-07 08:34 | 40.42054 | 31.14179 | 31128 ft | 496 kts | 118° |
| 2026-05-07 08:34 | 40.38879 | 31.22064 | 31129 ft | 491 kts | 109° |
| 2026-05-07 08:35 | 40.36698 | 31.30475 | 31130 ft | 484 kts | 99° |
| 2026-05-07 08:35 | 40.35293 | 31.38993 | 31131 ft | 482 kts | 96° |
| 2026-05-07 08:36 | 40.33937 | 31.47576 | 31131 ft | 482 kts | 96° |
| 2026-05-07 08:36 | 40.32548 | 31.56153 | 31130 ft | 483 kts | 97° |
| 2026-05-07 08:37 | 40.31141 | 31.64719 | 31128 ft | 482 kts | 97° |
| 2026-05-07 08:37 | 40.29729 | 31.73262 | 31128 ft | 482 kts | 98° |
| 2026-05-07 08:38 | 40.28307 | 31.81818 | 31129 ft | 482 kts | 98° |
| 2026-05-07 08:38 | 40.26868 | 31.90391 | 31134 ft | 482 kts | 99° |
| 2026-05-07 08:39 | 40.25133 | 31.98812 | 31133 ft | 483 kts | 102° |
| 2026-05-07 08:39 | 40.23298 | 32.07250 | 31136 ft | 482 kts | 102° |
| 2026-05-07 08:40 | 40.21465 | 32.15642 | 31145 ft | 481 kts | 102° |
| 2026-05-07 08:40 | 40.19638 | 32.24003 | 31144 ft | 481 kts | 102° |
| 2026-05-07 08:41 | 40.17802 | 32.32373 | 31158 ft | 481 kts | 101° |
| 2026-05-07 08:41 | 40.15951 | 32.40781 | 31149 ft | 480 kts | 102° |
| 2026-05-07 08:42 | 40.14111 | 32.49117 | 31146 ft | 479 kts | 102° |
| 2026-05-07 08:42 | 40.12270 | 32.57420 | 31151 ft | 478 kts | 102° |
| 2026-05-07 08:43 | 40.10405 | 32.65792 | 31154 ft | 477 kts | 102° |
| 2026-05-07 08:43 | 40.08490 | 32.74026 | 31157 ft | 479 kts | 106° |
| 2026-05-07 08:44 | 40.05719 | 32.81967 | 31164 ft | 483 kts | 116° |
| 2026-05-07 08:44 | 40.01937 | 32.89190 | 31173 ft | 486 kts | 126° |
| 2026-05-07 08:45 | 39.97646 | 32.95995 | 31169 ft | 484 kts | 127° |
| 2026-05-07 08:45 | 39.93356 | 33.02744 | 31160 ft | 484 kts | 127° |
| 2026-05-07 08:46 | 39.89097 | 33.09473 | 31156 ft | 485 kts | 127° |
| 2026-05-07 08:46 | 39.84788 | 33.16238 | 31153 ft | 486 kts | 127° |
| 2026-05-07 08:47 | 39.80484 | 33.23010 | 31154 ft | 487 kts | 127° |
| 2026-05-07 08:47 | 39.76179 | 33.29796 | 31144 ft | 487 kts | 127° |
| 2026-05-07 08:48 | 39.71881 | 33.36562 | 31146 ft | 488 kts | 127° |
| 2026-05-07 08:48 | 39.67549 | 33.43363 | 31135 ft | 489 kts | 127° |
| 2026-05-07 08:49 | 39.65381 | 33.46764 | 30877 ft | 488 kts | 127° |
| 2026-05-07 08:49 | 39.63228 | 33.50139 | 30558 ft | 487 kts | 127° |
| 2026-05-07 08:49 | 39.61102 | 33.53468 | 30175 ft | 484 kts | 127° |
| 2026-05-07 08:49 | 39.58948 | 33.56833 | 29772 ft | 480 kts | 126° |
| 2026-05-07 08:50 | 39.56848 | 33.60131 | 29384 ft | 479 kts | 126° |
| 2026-05-07 08:50 | 39.54758 | 33.63490 | 28987 ft | 480 kts | 125° |
| 2026-05-07 08:50 | 39.52677 | 33.66870 | 28587 ft | 480 kts | 126° |
| 2026-05-07 08:50 | 39.50614 | 33.70229 | 28195 ft | 480 kts | 126° |
| 2026-05-07 08:51 | 39.48541 | 33.73586 | 27808 ft | 482 kts | 126° |
| 2026-05-07 08:51 | 39.46412 | 33.77018 | 27398 ft | 482 kts | 126° |
| 2026-05-07 08:51 | 39.44316 | 33.80347 | 27014 ft | 483 kts | 127° |
| 2026-05-07 08:51 | 39.42177 | 33.83667 | 26611 ft | 483 kts | 127° |
| 2026-05-07 08:52 | 39.40010 | 33.87005 | 26227 ft | 479 kts | 127° |
| 2026-05-07 08:52 | 39.37880 | 33.90284 | 25841 ft | 476 kts | 127° |
| 2026-05-07 08:52 | 39.35771 | 33.93538 | 25453 ft | 472 kts | 127° |
| 2026-05-07 08:52 | 39.33693 | 33.96744 | 25065 ft | 470 kts | 127° |
| 2026-05-07 08:53 | 39.31596 | 33.99990 | 24657 ft | 468 kts | 127° |
| 2026-05-07 08:53 | 39.29542 | 34.03180 | 24286 ft | 464 kts | 127° |
| 2026-05-07 08:53 | 39.27485 | 34.06374 | 23882 ft | 460 kts | 127° |
| 2026-05-07 08:53 | 39.25441 | 34.09545 | 23498 ft | 457 kts | 127° |
| 2026-05-07 08:54 | 39.23438 | 34.12650 | 23115 ft | 451 kts | 127° |
| 2026-05-07 08:54 | 39.21443 | 34.15739 | 22700 ft | 443 kts | 127° |
| 2026-05-07 08:54 | 39.19478 | 34.18772 | 22326 ft | 435 kts | 127° |
| 2026-05-07 08:54 | 39.17560 | 34.21730 | 21930 ft | 428 kts | 127° |
| 2026-05-07 08:55 | 39.15695 | 34.24618 | 21542 ft | 422 kts | 126° |
| 2026-05-07 08:55 | 39.13912 | 34.27590 | 21153 ft | 414 kts | 123° |
| 2026-05-07 08:55 | 39.12286 | 34.30615 | 20765 ft | 407 kts | 120° |
| 2026-05-07 08:55 | 39.10817 | 34.33684 | 20372 ft | 401 kts | 117° |
| 2026-05-07 08:56 | 39.09495 | 34.36800 | 19987 ft | 394 kts | 114° |
| 2026-05-07 08:56 | 39.08325 | 34.39934 | 19601 ft | 388 kts | 111° |
| 2026-05-07 08:56 | 39.07284 | 34.43114 | 19214 ft | 382 kts | 108° |
| 2026-05-07 08:56 | 39.06381 | 34.46306 | 18832 ft | 377 kts | 105° |
| 2026-05-07 08:57 | 39.05615 | 34.49481 | 18448 ft | 371 kts | 103° |
| 2026-05-07 08:57 | 39.04974 | 34.52667 | 18061 ft | 366 kts | 100° |
| 2026-05-07 08:57 | 39.04460 | 34.55809 | 17682 ft | 361 kts | 98° |
| 2026-05-07 08:57 | 39.04061 | 34.58973 | 17297 ft | 356 kts | 95° |
| 2026-05-07 08:58 | 39.03778 | 34.62111 | 16919 ft | 352 kts | 92° |
| 2026-05-07 08:58 | 39.03608 | 34.65213 | 16537 ft | 348 kts | 91° |
| 2026-05-07 08:58 | 39.03545 | 34.68298 | 16157 ft | 344 kts | 88° |
| 2026-05-07 08:58 | 39.03587 | 34.71347 | 15776 ft | 340 kts | 86° |
| 2026-05-07 08:59 | 39.03730 | 34.74364 | 15405 ft | 337 kts | 84° |
| 2026-05-07 08:59 | 39.03969 | 34.77319 | 15028 ft | 333 kts | 81° |
| 2026-05-07 08:59 | 39.04304 | 34.80243 | 14674 ft | 329 kts | 79° |
| 2026-05-07 08:59 | 39.04732 | 34.83137 | 14372 ft | 324 kts | 76° |
| 2026-05-07 09:00 | 39.05226 | 34.85965 | 14080 ft | 332 kts | 76° |
| 2026-05-07 09:00 | 39.05680 | 34.88881 | 13783 ft | 335 kts | 78° |
| 2026-05-07 09:00 | 39.06040 | 34.91840 | 13497 ft | 334 kts | 81° |
| 2026-05-07 09:00 | 39.06299 | 34.94806 | 13252 ft | 334 kts | 84° |
| 2026-05-07 09:01 | 39.06456 | 34.97787 | 13005 ft | 334 kts | 86° |
| 2026-05-07 09:01 | 39.06511 | 35.00727 | 12759 ft | 332 kts | 89° |
| 2026-05-07 09:01 | 39.06466 | 35.03659 | 12512 ft | 325 kts | 91° |
| 2026-05-07 09:01 | 39.06325 | 35.06561 | 12265 ft | 319 kts | 94° |
| 2026-05-07 09:02 | 39.06135 | 35.09372 | 12021 ft | 317 kts | 94° |
| 2026-05-07 09:02 | 39.05935 | 35.12185 | 11776 ft | 316 kts | 94° |
| 2026-05-07 09:02 | 39.05734 | 35.14999 | 11531 ft | 315 kts | 94° |
| 2026-05-07 09:02 | 39.05538 | 35.17780 | 11286 ft | 313 kts | 94° |
| 2026-05-07 09:03 | 39.05343 | 35.20560 | 11041 ft | 312 kts | 94° |
| 2026-05-07 09:03 | 39.05151 | 35.23295 | 10884 ft | 311 kts | 94° |
| 2026-05-07 09:03 | 39.04955 | 35.26084 | 10733 ft | 310 kts | 94° |
| 2026-05-07 09:03 | 39.04760 | 35.28839 | 10585 ft | 309 kts | 95° |
| 2026-05-07 09:04 | 39.04567 | 35.31582 | 10434 ft | 309 kts | 95° |
| 2026-05-07 09:04 | 39.04368 | 35.34310 | 10285 ft | 307 kts | 95° |
| 2026-05-07 09:04 | 39.04072 | 35.37027 | 10131 ft | 307 kts | 99° |
| 2026-05-07 09:04 | 39.03642 | 35.39669 | 9982 ft | 301 kts | 103° |
| 2026-05-07 09:05 | 39.03086 | 35.42223 | 9833 ft | 292 kts | 106° |
| 2026-05-07 09:05 | 39.02496 | 35.44675 | 9677 ft | 283 kts | 106° |
| 2026-05-07 09:05 | 39.01916 | 35.47062 | 9528 ft | 282 kts | 106° |
| 2026-05-07 09:05 | 39.01329 | 35.49482 | 9380 ft | 281 kts | 106° |
| 2026-05-07 09:06 | 39.00749 | 35.51879 | 9235 ft | 281 kts | 106° |
| 2026-05-07 09:06 | 39.00171 | 35.54265 | 9205 ft | 281 kts | 106° |
| 2026-05-07 09:06 | 38.99587 | 35.56678 | 9201 ft | 282 kts | 106° |
| 2026-05-07 09:06 | 38.99006 | 35.59079 | 9198 ft | 282 kts | 106° |
| 2026-05-07 09:07 | 38.98425 | 35.61474 | 9196 ft | 283 kts | 106° |
| 2026-05-07 09:07 | 38.97844 | 35.63870 | 9186 ft | 274 kts | 106° |
| 2026-05-07 09:07 | 38.97281 | 35.66188 | 9186 ft | 271 kts | 106° |
| 2026-05-07 09:07 | 38.96729 | 35.68471 | 9186 ft | 271 kts | 106° |
| 2026-05-07 09:08 | 38.96167 | 35.70789 | 9086 ft | 271 kts | 106° |
| 2026-05-07 09:08 | 38.95615 | 35.73062 | 8889 ft | 265 kts | 106° |
| 2026-05-07 09:08 | 38.95071 | 35.75296 | 8685 ft | 258 kts | 106° |
| 2026-05-07 09:08 | 38.94536 | 35.77490 | 8491 ft | 257 kts | 106° |
| 2026-05-07 09:09 | 38.94006 | 35.79665 | 8295 ft | 255 kts | 106° |
| 2026-05-07 09:09 | 38.93456 | 35.81805 | 8085 ft | 249 kts | 113° |
| 2026-05-07 09:09 | 38.92398 | 35.83476 | 7853 ft | 245 kts | 149° |
| 2026-05-07 09:09 | 38.90805 | 35.84072 | 7788 ft | 235 kts | 181° |
| 2026-05-07 09:10 | 38.89252 | 35.83564 | 7788 ft | 234 kts | 210° |
| 2026-05-07 09:10 | 38.87858 | 35.82467 | 7955 ft | 237 kts | 213° |
| 2026-05-07 09:10 | 38.86467 | 35.81328 | 7858 ft | 233 kts | 213° |
| 2026-05-07 09:10 | 38.85136 | 35.80257 | 7792 ft | 216 kts | 212° |
| 2026-05-07 09:11 | 38.83913 | 35.79290 | 7755 ft | 196 kts | 212° |
| 2026-05-07 09:11 | 38.82814 | 35.78417 | 7725 ft | 183 kts | 216° |
| 2026-05-07 09:11 | 38.82050 | 35.77164 | 7535 ft | 177 kts | 252° |
| 2026-05-07 09:11 | 38.81756 | 35.75654 | 7356 ft | 174 kts | 261° |
| 2026-05-07 09:12 | 38.81531 | 35.74132 | 7158 ft | 174 kts | 261° |
| 2026-05-07 09:12 | 38.81296 | 35.72620 | 6958 ft | 174 kts | 259° |
| 2026-05-07 09:12 | 38.81041 | 35.71110 | 6763 ft | 173 kts | 259° |
| 2026-05-07 09:12 | 38.80776 | 35.69619 | 6698 ft | 168 kts | 258° |
| 2026-05-07 09:13 | 38.80511 | 35.68158 | 6690 ft | 167 kts | 258° |
| 2026-05-07 09:13 | 38.80245 | 35.66724 | 6691 ft | 166 kts | 258° |
| 2026-05-07 09:13 | 38.79977 | 35.65290 | 6691 ft | 166 kts | 258° |
| 2026-05-07 09:13 | 38.79706 | 35.63839 | 6647 ft | 167 kts | 258° |
| 2026-05-07 09:14 | 38.79436 | 35.62397 | 6357 ft | 165 kts | 258° |
| 2026-05-07 09:14 | 38.79169 | 35.60974 | 6013 ft | 164 kts | 258° |
| 2026-05-07 09:14 | 38.78904 | 35.59560 | 5666 ft | 164 kts | 258° |
| 2026-05-07 09:14 | 38.78640 | 35.58154 | 5298 ft | 163 kts | 258° |
| 2026-05-07 09:15 | 38.78377 | 35.56753 | 4908 ft | 163 kts | 258° |
| 2026-05-07 09:15 | 38.78121 | 35.55347 | 4478 ft | 162 kts | 259° |
| 2026-05-07 09:15 | 38.77877 | 35.53972 | 4102 ft | 160 kts | 258° |
| 2026-05-07 09:15 | 38.77614 | 35.52585 | 3809 ft | 160 kts | 256° |
| 2026-05-07 09:16 | 38.77351 | 35.51196 | 3537 ft | 161 kts | 255° |
| 2026-05-07 09:16 | 38.77096 | 35.49856 | 3465 ft | 135 kts | 257° |
| 2026-05-07 09:16 | 38.76936 | 35.48999 | 3461 ft | 64 kts | 256° |
| 2026-05-07 09:16 | 38.76866 | 35.48635 | 3458 ft | 30 kts | 256° |
| 2026-05-07 09:17 | 38.76826 | 35.48421 | 3458 ft | 20 kts | 255° |
| 2026-05-07 09:17 | 38.76792 | 35.48247 | 3458 ft | 21 kts | 257° |
| 2026-05-07 09:17 | 38.76742 | 35.48103 | 3458 ft | 15 kts | 200° |
| 2026-05-07 09:17 | 38.76684 | 35.48106 | 3458 ft | 4 kts | 168° |
| 2026-05-07 09:18 | 38.76655 | 35.48116 | 3458 ft | 3 kts | 154° |
| 2026-05-07 09:18 | 38.76634 | 35.48134 | 3458 ft | 3 kts | 146° |
| 2026-05-07 09:18 | 38.76606 | 35.48148 | 3458 ft | 4 kts | 165° |
| 2026-05-07 09:18 | 38.76590 | 35.48153 | 3458 ft | 0 kts | 165° |